sensor_id;sensor_type;location;lat;lon;timestamp;P1;durP1;ratioP1;P2;durP2;ratioP2
67728;SDS011;54526;30.574;103.916;2024-01-11T00:00:32;187.90;;;86.10;;
67728;SDS011;54526;30.574;103.916;2024-01-11T00:01:32;190.20;;;81.70;;
67728;SDS011;54526;30.574;103.916;2024-01-11T00:02:32;182.80;;;81.40;;
67728;SDS011;54526;30.574;103.916;2024-01-11T00:03:31;175.10;;;79.20;;
67728;SDS011;54526;30.574;103.916;2024-01-11T00:04:31;171.60;;;77.10;;
67728;SDS011;54526;30.574;103.916;2024-01-11T00:05:31;152.20;;;73.90;;
67728;SDS011;54526;30.574;103.916;2024-01-11T00:06:32;150.50;;;74.20;;
67728;SDS011;54526;30.574;103.916;2024-01-11T00:07:32;155.80;;;73.00;;
67728;SDS011;54526;30.574;103.916;2024-01-11T00:08:32;163.80;;;74.00;;
67728;SDS011;54526;30.574;103.916;2024-01-11T00:09:31;153.40;;;74.00;;
67728;SDS011;54526;30.574;103.916;2024-01-11T00:10:31;163.70;;;72.50;;
67728;SDS011;54526;30.574;103.916;2024-01-11T00:11:31;164.60;;;71.90;;
67728;SDS011;54526;30.574;103.916;2024-01-11T00:12:31;157.10;;;71.90;;
67728;SDS011;54526;30.574;103.916;2024-01-11T00:13:31;146.70;;;70.40;;
67728;SDS011;54526;30.574;103.916;2024-01-11T00:14:31;164.20;;;72.50;;
67728;SDS011;54526;30.574;103.916;2024-01-11T00:15:31;156.90;;;72.90;;
67728;SDS011;54526;30.574;103.916;2024-01-11T00:16:31;154.60;;;71.60;;
67728;SDS011;54526;30.574;103.916;2024-01-11T00:17:31;148.90;;;69.90;;
67728;SDS011;54526;30.574;103.916;2024-01-11T00:18:31;164.00;;;72.00;;
67728;SDS011;54526;30.574;103.916;2024-01-11T00:19:31;149.30;;;71.40;;
67728;SDS011;54526;30.574;103.916;2024-01-11T00:20:31;148.10;;;69.60;;
67728;SDS011;54526;30.574;103.916;2024-01-11T00:21:30;149.10;;;69.30;;
67728;SDS011;54526;30.574;103.916;2024-01-11T00:22:31;148.80;;;69.50;;
67728;SDS011;54526;30.574;103.916;2024-01-11T00:23:31;149.60;;;69.10;;
67728;SDS011;54526;30.574;103.916;2024-01-11T00:24:31;148.20;;;70.50;;
67728;SDS011;54526;30.574;103.916;2024-01-11T00:25:31;138.80;;;67.60;;
67728;SDS011;54526;30.574;103.916;2024-01-11T00:26:31;143.40;;;66.90;;
67728;SDS011;54526;30.574;103.916;2024-01-11T00:27:31;143.70;;;70.00;;
67728;SDS011;54526;30.574;103.916;2024-01-11T00:28:31;149.50;;;70.00;;
67728;SDS011;54526;30.574;103.916;2024-01-11T00:29:31;146.50;;;68.60;;
67728;SDS011;54526;30.574;103.916;2024-01-11T00:30:31;146.70;;;68.40;;
67728;SDS011;54526;30.574;103.916;2024-01-11T00:31:30;138.70;;;66.90;;
67728;SDS011;54526;30.574;103.916;2024-01-11T00:32:31;149.70;;;69.80;;
67728;SDS011;54526;30.574;103.916;2024-01-11T00:33:31;151.90;;;69.00;;
67728;SDS011;54526;30.574;103.916;2024-01-11T00:34:30;144.60;;;68.70;;
67728;SDS011;54526;30.574;103.916;2024-01-11T00:35:30;156.00;;;69.30;;
67728;SDS011;54526;30.574;103.916;2024-01-11T00:36:30;151.50;;;68.40;;
67728;SDS011;54526;30.574;103.916;2024-01-11T00:37:30;144.70;;;68.30;;
67728;SDS011;54526;30.574;103.916;2024-01-11T00:38:30;148.80;;;67.90;;
67728;SDS011;54526;30.574;103.916;2024-01-11T00:39:30;146.70;;;68.50;;
67728;SDS011;54526;30.574;103.916;2024-01-11T00:40:30;147.70;;;66.80;;
67728;SDS011;54526;30.574;103.916;2024-01-11T00:41:29;150.40;;;68.20;;
67728;SDS011;54526;30.574;103.916;2024-01-11T00:42:30;144.20;;;66.80;;
67728;SDS011;54526;30.574;103.916;2024-01-11T00:43:30;151.00;;;68.00;;
67728;SDS011;54526;30.574;103.916;2024-01-11T00:44:30;143.40;;;69.20;;
67728;SDS011;54526;30.574;103.916;2024-01-11T00:45:30;136.60;;;66.60;;
67728;SDS011;54526;30.574;103.916;2024-01-11T00:46:29;128.40;;;64.50;;
67728;SDS011;54526;30.574;103.916;2024-01-11T00:47:29;134.10;;;64.80;;
67728;SDS011;54526;30.574;103.916;2024-01-11T00:48:29;138.20;;;65.50;;
67728;SDS011;54526;30.574;103.916;2024-01-11T00:49:30;150.20;;;67.10;;
67728;SDS011;54526;30.574;103.916;2024-01-11T00:50:30;143.30;;;65.90;;
67728;SDS011;54526;30.574;103.916;2024-01-11T00:51:29;154.70;;;69.30;;
67728;SDS011;54526;30.574;103.916;2024-01-11T00:52:29;138.90;;;66.30;;
67728;SDS011;54526;30.574;103.916;2024-01-11T00:53:30;152.10;;;64.90;;
67728;SDS011;54526;30.574;103.916;2024-01-11T00:54:29;159.10;;;69.10;;
67728;SDS011;54526;30.574;103.916;2024-01-11T00:55:29;193.80;;;73.60;;
67728;SDS011;54526;30.574;103.916;2024-01-11T00:56:29;173.10;;;69.20;;
67728;SDS011;54526;30.574;103.916;2024-01-11T00:57:29;157.40;;;65.30;;
67728;SDS011;54526;30.574;103.916;2024-01-11T00:58:29;155.30;;;67.50;;
67728;SDS011;54526;30.574;103.916;2024-01-11T00:59:29;160.30;;;64.40;;
67728;SDS011;54526;30.574;103.916;2024-01-11T01:00:29;164.00;;;68.30;;
67728;SDS011;54526;30.574;103.916;2024-01-11T01:01:28;172.10;;;68.00;;
67728;SDS011;54526;30.574;103.916;2024-01-11T01:02:28;167.30;;;68.90;;
67728;SDS011;54526;30.574;103.916;2024-01-11T01:03:29;167.00;;;72.00;;
67728;SDS011;54526;30.574;103.916;2024-01-11T01:04:29;182.20;;;77.10;;
67728;SDS011;54526;30.574;103.916;2024-01-11T01:05:29;200.90;;;81.00;;
67728;SDS011;54526;30.574;103.916;2024-01-11T01:06:29;203.20;;;79.10;;
67728;SDS011;54526;30.574;103.916;2024-01-11T01:07:29;184.30;;;75.90;;
67728;SDS011;54526;30.574;103.916;2024-01-11T01:08:29;173.00;;;73.30;;
67728;SDS011;54526;30.574;103.916;2024-01-11T01:09:29;171.80;;;74.50;;
67728;SDS011;54526;30.574;103.916;2024-01-11T01:10:28;184.40;;;74.40;;
67728;SDS011;54526;30.574;103.916;2024-01-11T01:11:28;166.80;;;71.90;;
67728;SDS011;54526;30.574;103.916;2024-01-11T01:12:28;170.20;;;74.40;;
67728;SDS011;54526;30.574;103.916;2024-01-11T01:13:28;175.30;;;75.10;;
67728;SDS011;54526;30.574;103.916;2024-01-11T01:14:29;192.60;;;77.30;;
67728;SDS011;54526;30.574;103.916;2024-01-11T01:15:28;164.80;;;71.90;;
67728;SDS011;54526;30.574;103.916;2024-01-11T01:16:28;182.30;;;72.70;;
67728;SDS011;54526;30.574;103.916;2024-01-11T01:17:28;169.70;;;72.20;;
67728;SDS011;54526;30.574;103.916;2024-01-11T01:18:28;171.20;;;75.50;;
67728;SDS011;54526;30.574;103.916;2024-01-11T01:19:28;161.60;;;72.50;;
67728;SDS011;54526;30.574;103.916;2024-01-11T01:20:28;172.30;;;71.40;;
67728;SDS011;54526;30.574;103.916;2024-01-11T01:21:27;170.90;;;74.20;;
67728;SDS011;54526;30.574;103.916;2024-01-11T01:22:28;175.80;;;73.00;;
67728;SDS011;54526;30.574;103.916;2024-01-11T01:23:28;186.30;;;77.70;;
67728;SDS011;54526;30.574;103.916;2024-01-11T01:24:28;189.50;;;79.50;;
67728;SDS011;54526;30.574;103.916;2024-01-11T01:25:28;220.60;;;84.90;;
67728;SDS011;54526;30.574;103.916;2024-01-11T01:26:28;222.50;;;85.30;;
67728;SDS011;54526;30.574;103.916;2024-01-11T01:27:27;173.30;;;78.90;;
67728;SDS011;54526;30.574;103.916;2024-01-11T01:28:27;183.90;;;78.70;;
67728;SDS011;54526;30.574;103.916;2024-01-11T01:29:28;173.60;;;76.00;;
67728;SDS011;54526;30.574;103.916;2024-01-11T01:30:28;180.70;;;78.40;;
67728;SDS011;54526;30.574;103.916;2024-01-11T01:31:28;175.80;;;78.70;;
67728;SDS011;54526;30.574;103.916;2024-01-11T01:32:27;171.70;;;80.70;;
67728;SDS011;54526;30.574;103.916;2024-01-11T01:33:27;175.20;;;76.20;;
67728;SDS011;54526;30.574;103.916;2024-01-11T01:34:27;203.60;;;81.70;;
67728;SDS011;54526;30.574;103.916;2024-01-11T01:35:27;203.50;;;84.60;;
67728;SDS011;54526;30.574;103.916;2024-01-11T01:36:27;181.50;;;76.50;;
67728;SDS011;54526;30.574;103.916;2024-01-11T01:37:27;180.70;;;79.20;;
67728;SDS011;54526;30.574;103.916;2024-01-11T01:38:32;165.70;;;74.30;;
67728;SDS011;54526;30.574;103.916;2024-01-11T01:39:27;169.60;;;74.60;;
67728;SDS011;54526;30.574;103.916;2024-01-11T01:40:27;181.40;;;77.30;;
67728;SDS011;54526;30.574;103.916;2024-01-11T01:41:27;171.90;;;75.20;;
67728;SDS011;54526;30.574;103.916;2024-01-11T01:42:27;159.10;;;70.30;;
67728;SDS011;54526;30.574;103.916;2024-01-11T01:43:27;146.70;;;66.10;;
67728;SDS011;54526;30.574;103.916;2024-01-11T01:44:27;161.30;;;64.40;;
67728;SDS011;54526;30.574;103.916;2024-01-11T01:45:27;137.10;;;57.50;;
67728;SDS011;54526;30.574;103.916;2024-01-11T01:46:27;130.40;;;59.40;;
67728;SDS011;54526;30.574;103.916;2024-01-11T01:47:27;123.80;;;58.20;;
67728;SDS011;54526;30.574;103.916;2024-01-11T01:48:27;131.70;;;58.40;;
67728;SDS011;54526;30.574;103.916;2024-01-11T01:49:30;130.80;;;55.90;;
67728;SDS011;54526;30.574;103.916;2024-01-11T01:50:27;127.90;;;54.10;;
67728;SDS011;54526;30.574;103.916;2024-01-11T01:51:27;128.40;;;54.10;;
67728;SDS011;54526;30.574;103.916;2024-01-11T01:52:26;122.20;;;52.10;;
67728;SDS011;54526;30.574;103.916;2024-01-11T01:53:27;119.30;;;52.40;;
67728;SDS011;54526;30.574;103.916;2024-01-11T01:54:26;119.70;;;53.20;;
67728;SDS011;54526;30.574;103.916;2024-01-11T01:55:27;121.10;;;52.10;;
67728;SDS011;54526;30.574;103.916;2024-01-11T01:56:26;106.00;;;50.70;;
67728;SDS011;54526;30.574;103.916;2024-01-11T01:57:26;110.90;;;49.80;;
67728;SDS011;54526;30.574;103.916;2024-01-11T01:58:26;115.90;;;50.70;;
67728;SDS011;54526;30.574;103.916;2024-01-11T01:59:26;109.20;;;46.60;;
67728;SDS011;54526;30.574;103.916;2024-01-11T02:00:27;104.80;;;47.90;;
67728;SDS011;54526;30.574;103.916;2024-01-11T02:01:26;111.50;;;46.60;;
67728;SDS011;54526;30.574;103.916;2024-01-11T02:02:27;95.20;;;44.70;;
67728;SDS011;54526;30.574;103.916;2024-01-11T02:03:26;98.10;;;46.10;;
67728;SDS011;54526;30.574;103.916;2024-01-11T02:04:26;103.90;;;45.90;;
67728;SDS011;54526;30.574;103.916;2024-01-11T02:05:26;95.50;;;44.80;;
67728;SDS011;54526;30.574;103.916;2024-01-11T02:06:26;95.60;;;44.40;;
67728;SDS011;54526;30.574;103.916;2024-01-11T02:07:26;95.90;;;43.20;;
67728;SDS011;54526;30.574;103.916;2024-01-11T02:08:26;91.30;;;44.40;;
67728;SDS011;54526;30.574;103.916;2024-01-11T02:09:26;113.10;;;45.40;;
67728;SDS011;54526;30.574;103.916;2024-01-11T02:10:26;88.60;;;40.20;;
67728;SDS011;54526;30.574;103.916;2024-01-11T02:11:26;117.20;;;46.30;;
67728;SDS011;54526;30.574;103.916;2024-01-11T02:12:26;93.70;;;41.60;;
67728;SDS011;54526;30.574;103.916;2024-01-11T02:13:26;92.40;;;40.50;;
67728;SDS011;54526;30.574;103.916;2024-01-11T02:14:26;93.70;;;39.20;;
67728;SDS011;54526;30.574;103.916;2024-01-11T02:15:26;89.10;;;40.60;;
67728;SDS011;54526;30.574;103.916;2024-01-11T02:16:26;98.20;;;40.70;;
67728;SDS011;54526;30.574;103.916;2024-01-11T02:17:25;89.70;;;41.10;;
67728;SDS011;54526;30.574;103.916;2024-01-11T02:18:25;82.60;;;39.50;;
67728;SDS011;54526;30.574;103.916;2024-01-11T02:19:26;83.30;;;37.20;;
67728;SDS011;54526;30.574;103.916;2024-01-11T02:20:26;79.50;;;36.90;;
67728;SDS011;54526;30.574;103.916;2024-01-11T02:21:26;91.10;;;38.30;;
67728;SDS011;54526;30.574;103.916;2024-01-11T02:22:30;87.90;;;38.80;;
67728;SDS011;54526;30.574;103.916;2024-01-11T02:23:25;83.70;;;38.50;;
67728;SDS011;54526;30.574;103.916;2024-01-11T02:24:26;99.00;;;39.30;;
67728;SDS011;54526;30.574;103.916;2024-01-11T02:25:25;94.80;;;39.60;;
67728;SDS011;54526;30.574;103.916;2024-01-11T02:26:25;93.00;;;38.20;;
67728;SDS011;54526;30.574;103.916;2024-01-11T02:27:25;90.30;;;39.30;;
67728;SDS011;54526;30.574;103.916;2024-01-11T02:28:25;101.90;;;40.60;;
67728;SDS011;54526;30.574;103.916;2024-01-11T02:29:26;88.50;;;41.50;;
67728;SDS011;54526;30.574;103.916;2024-01-11T02:30:25;85.80;;;36.90;;
67728;SDS011;54526;30.574;103.916;2024-01-11T02:31:25;84.40;;;35.30;;
67728;SDS011;54526;30.574;103.916;2024-01-11T02:32:25;73.70;;;33.20;;
67728;SDS011;54526;30.574;103.916;2024-01-11T02:33:26;80.70;;;33.20;;
67728;SDS011;54526;30.574;103.916;2024-01-11T02:34:26;85.60;;;36.00;;
67728;SDS011;54526;30.574;103.916;2024-01-11T02:35:25;74.30;;;34.40;;
67728;SDS011;54526;30.574;103.916;2024-01-11T02:36:25;79.10;;;35.30;;
67728;SDS011;54526;30.574;103.916;2024-01-11T02:37:25;82.70;;;34.50;;
67728;SDS011;54526;30.574;103.916;2024-01-11T02:38:26;97.10;;;36.80;;
67728;SDS011;54526;30.574;103.916;2024-01-11T02:39:25;83.80;;;34.60;;
67728;SDS011;54526;30.574;103.916;2024-01-11T02:40:25;78.30;;;33.90;;
67728;SDS011;54526;30.574;103.916;2024-01-11T02:41:24;97.30;;;38.50;;
67728;SDS011;54526;30.574;103.916;2024-01-11T02:42:25;78.90;;;31.80;;
67728;SDS011;54526;30.574;103.916;2024-01-11T02:43:25;83.60;;;32.80;;
67728;SDS011;54526;30.574;103.916;2024-01-11T02:44:24;81.40;;;32.70;;
67728;SDS011;54526;30.574;103.916;2024-01-11T02:45:25;69.20;;;30.00;;
67728;SDS011;54526;30.574;103.916;2024-01-11T02:46:25;72.60;;;30.90;;
67728;SDS011;54526;30.574;103.916;2024-01-11T02:47:25;100.70;;;36.00;;
67728;SDS011;54526;30.574;103.916;2024-01-11T02:48:28;78.90;;;32.20;;
67728;SDS011;54526;30.574;103.916;2024-01-11T02:49:25;70.60;;;30.80;;
67728;SDS011;54526;30.574;103.916;2024-01-11T02:50:24;71.00;;;31.30;;
67728;SDS011;54526;30.574;103.916;2024-01-11T02:51:24;72.20;;;32.30;;
67728;SDS011;54526;30.574;103.916;2024-01-11T02:52:25;71.40;;;30.80;;
67728;SDS011;54526;30.574;103.916;2024-01-11T02:53:25;73.40;;;31.30;;
67728;SDS011;54526;30.574;103.916;2024-01-11T02:54:25;86.20;;;32.50;;
67728;SDS011;54526;30.574;103.916;2024-01-11T02:55:24;73.60;;;31.00;;
67728;SDS011;54526;30.574;103.916;2024-01-11T02:56:24;79.20;;;31.50;;
67728;SDS011;54526;30.574;103.916;2024-01-11T02:57:24;71.70;;;29.50;;
67728;SDS011;54526;30.574;103.916;2024-01-11T02:58:25;76.40;;;31.30;;
67728;SDS011;54526;30.574;103.916;2024-01-11T02:59:25;80.70;;;30.90;;
67728;SDS011;54526;30.574;103.916;2024-01-11T03:00:25;75.40;;;29.30;;
67728;SDS011;54526;30.574;103.916;2024-01-11T03:01:24;74.30;;;30.70;;
67728;SDS011;54526;30.574;103.916;2024-01-11T03:02:24;74.00;;;31.90;;
67728;SDS011;54526;30.574;103.916;2024-01-11T03:03:24;73.80;;;30.80;;
67728;SDS011;54526;30.574;103.916;2024-01-11T03:04:25;66.70;;;28.60;;
67728;SDS011;54526;30.574;103.916;2024-01-11T03:05:25;70.60;;;30.30;;
67728;SDS011;54526;30.574;103.916;2024-01-11T03:06:24;77.10;;;31.90;;
67728;SDS011;54526;30.574;103.916;2024-01-11T03:07:24;69.20;;;28.80;;
67728;SDS011;54526;30.574;103.916;2024-01-11T03:08:24;70.10;;;29.00;;
67728;SDS011;54526;30.574;103.916;2024-01-11T03:09:24;79.50;;;31.30;;
67728;SDS011;54526;30.574;103.916;2024-01-11T03:10:25;64.30;;;28.80;;
67728;SDS011;54526;30.574;103.916;2024-01-11T03:11:24;73.50;;;29.10;;
67728;SDS011;54526;30.574;103.916;2024-01-11T03:12:24;60.40;;;27.20;;
67728;SDS011;54526;30.574;103.916;2024-01-11T03:13:24;69.70;;;29.00;;
67728;SDS011;54526;30.574;103.916;2024-01-11T03:14:24;69.00;;;27.70;;
67728;SDS011;54526;30.574;103.916;2024-01-11T03:15:25;69.90;;;29.40;;
67728;SDS011;54526;30.574;103.916;2024-01-11T03:16:24;77.20;;;29.60;;
67728;SDS011;54526;30.574;103.916;2024-01-11T03:17:24;71.60;;;28.70;;
67728;SDS011;54526;30.574;103.916;2024-01-11T03:18:24;70.10;;;29.10;;
67728;SDS011;54526;30.574;103.916;2024-01-11T03:19:24;71.60;;;30.00;;
67728;SDS011;54526;30.574;103.916;2024-01-11T03:20:25;69.60;;;28.40;;
67728;SDS011;54526;30.574;103.916;2024-01-11T03:21:25;88.40;;;34.50;;
67728;SDS011;54526;30.574;103.916;2024-01-11T03:22:27;71.60;;;30.20;;
67728;SDS011;54526;30.574;103.916;2024-01-11T03:23:24;84.00;;;32.40;;
67728;SDS011;54526;30.574;103.916;2024-01-11T03:24:24;81.50;;;31.00;;
67728;SDS011;54526;30.574;103.916;2024-01-11T03:25:24;69.60;;;28.30;;
67728;SDS011;54526;30.574;103.916;2024-01-11T03:26:24;69.60;;;29.50;;
67728;SDS011;54526;30.574;103.916;2024-01-11T03:27:27;64.60;;;27.90;;
67728;SDS011;54526;30.574;103.916;2024-01-11T03:28:24;75.50;;;28.70;;
67728;SDS011;54526;30.574;103.916;2024-01-11T03:29:27;67.90;;;27.50;;
67728;SDS011;54526;30.574;103.916;2024-01-11T03:30:24;65.10;;;25.70;;
67728;SDS011;54526;30.574;103.916;2024-01-11T03:31:24;68.20;;;26.90;;
67728;SDS011;54526;30.574;103.916;2024-01-11T03:32:24;67.40;;;27.20;;
67728;SDS011;54526;30.574;103.916;2024-01-11T03:33:24;78.10;;;32.90;;
67728;SDS011;54526;30.574;103.916;2024-01-11T03:34:24;145.20;;;63.90;;
67728;SDS011;54526;30.574;103.916;2024-01-11T03:35:24;169.90;;;77.30;;
67728;SDS011;54526;30.574;103.916;2024-01-11T03:36:24;185.20;;;79.90;;
67728;SDS011;54526;30.574;103.916;2024-01-11T03:37:24;203.40;;;88.60;;
67728;SDS011;54526;30.574;103.916;2024-01-11T03:38:24;197.00;;;89.60;;
67728;SDS011;54526;30.574;103.916;2024-01-11T03:39:25;233.00;;;98.50;;
67728;SDS011;54526;30.574;103.916;2024-01-11T03:40:24;209.90;;;91.20;;
67728;SDS011;54526;30.574;103.916;2024-01-11T03:41:23;207.20;;;90.20;;
67728;SDS011;54526;30.574;103.916;2024-01-11T03:42:23;210.60;;;93.70;;
67728;SDS011;54526;30.574;103.916;2024-01-11T03:43:24;196.50;;;90.40;;
67728;SDS011;54526;30.574;103.916;2024-01-11T03:44:24;196.00;;;88.50;;
67728;SDS011;54526;30.574;103.916;2024-01-11T03:45:24;199.90;;;88.60;;
67728;SDS011;54526;30.574;103.916;2024-01-11T03:46:23;197.80;;;88.60;;
67728;SDS011;54526;30.574;103.916;2024-01-11T03:47:23;194.40;;;87.30;;
67728;SDS011;54526;30.574;103.916;2024-01-11T03:48:23;198.50;;;89.20;;
67728;SDS011;54526;30.574;103.916;2024-01-11T03:49:24;201.70;;;88.30;;
67728;SDS011;54526;30.574;103.916;2024-01-11T03:50:24;193.00;;;86.70;;
67728;SDS011;54526;30.574;103.916;2024-01-11T03:51:23;201.10;;;86.40;;
67728;SDS011;54526;30.574;103.916;2024-01-11T03:52:23;195.70;;;88.20;;
67728;SDS011;54526;30.574;103.916;2024-01-11T03:53:23;203.70;;;90.10;;
67728;SDS011;54526;30.574;103.916;2024-01-11T03:54:23;196.50;;;86.70;;
67728;SDS011;54526;30.574;103.916;2024-01-11T03:55:24;213.20;;;93.00;;
67728;SDS011;54526;30.574;103.916;2024-01-11T03:56:24;217.20;;;95.40;;
67728;SDS011;54526;30.574;103.916;2024-01-11T03:57:23;220.10;;;94.00;;
67728;SDS011;54526;30.574;103.916;2024-01-11T03:58:23;213.00;;;91.60;;
67728;SDS011;54526;30.574;103.916;2024-01-11T03:59:24;208.20;;;89.50;;
67728;SDS011;54526;30.574;103.916;2024-01-11T04:00:23;211.50;;;87.00;;
67728;SDS011;54526;30.574;103.916;2024-01-11T04:01:23;208.20;;;87.20;;
67728;SDS011;54526;30.574;103.916;2024-01-11T04:02:24;238.00;;;95.30;;
67728;SDS011;54526;30.574;103.916;2024-01-11T04:03:23;226.60;;;92.50;;
67728;SDS011;54526;30.574;103.916;2024-01-11T04:05:24;238.30;;;92.50;;
67728;SDS011;54526;30.574;103.916;2024-01-11T04:06:24;197.20;;;88.90;;
67728;SDS011;54526;30.574;103.916;2024-01-11T04:07:23;197.60;;;87.90;;
67728;SDS011;54526;30.574;103.916;2024-01-11T04:08:23;211.20;;;90.30;;
67728;SDS011;54526;30.574;103.916;2024-01-11T04:09:23;198.30;;;89.40;;
67728;SDS011;54526;30.574;103.916;2024-01-11T04:10:23;216.40;;;94.60;;
67728;SDS011;54526;30.574;103.916;2024-01-11T04:11:23;200.10;;;89.40;;
67728;SDS011;54526;30.574;103.916;2024-01-11T04:12:23;222.00;;;94.30;;
67728;SDS011;54526;30.574;103.916;2024-01-11T04:13:23;209.80;;;92.10;;
67728;SDS011;54526;30.574;103.916;2024-01-11T04:14:23;200.60;;;90.40;;
67728;SDS011;54526;30.574;103.916;2024-01-11T04:15:22;212.00;;;91.30;;
67728;SDS011;54526;30.574;103.916;2024-01-11T04:16:23;204.40;;;89.50;;
67728;SDS011;54526;30.574;103.916;2024-01-11T04:17:23;205.70;;;91.60;;
67728;SDS011;54526;30.574;103.916;2024-01-11T04:18:23;190.90;;;88.80;;
67728;SDS011;54526;30.574;103.916;2024-01-11T04:19:23;203.90;;;90.80;;
67728;SDS011;54526;30.574;103.916;2024-01-11T04:20:23;227.00;;;95.10;;
67728;SDS011;54526;30.574;103.916;2024-01-11T04:21:24;206.80;;;93.30;;
67728;SDS011;54526;30.574;103.916;2024-01-11T04:22:23;204.00;;;91.80;;
67728;SDS011;54526;30.574;103.916;2024-01-11T04:23:23;225.40;;;98.90;;
67728;SDS011;54526;30.574;103.916;2024-01-11T04:24:25;230.20;;;98.00;;
67728;SDS011;54526;30.574;103.916;2024-01-11T04:25:23;209.40;;;92.70;;
67728;SDS011;54526;30.574;103.916;2024-01-11T04:26:23;289.50;;;109.60;;
67728;SDS011;54526;30.574;103.916;2024-01-11T04:27:23;303.10;;;119.60;;
67728;SDS011;54526;30.574;103.916;2024-01-11T04:28:23;221.20;;;98.20;;
67728;SDS011;54526;30.574;103.916;2024-01-11T04:29:23;213.40;;;97.40;;
67728;SDS011;54526;30.574;103.916;2024-01-11T04:30:25;226.00;;;99.60;;
67728;SDS011;54526;30.574;103.916;2024-01-11T04:31:22;232.30;;;99.40;;
67728;SDS011;54526;30.574;103.916;2024-01-11T04:32:22;298.50;;;119.30;;
67728;SDS011;54526;30.574;103.916;2024-01-11T04:33:22;318.40;;;119.20;;
67728;SDS011;54526;30.574;103.916;2024-01-11T04:34:23;230.90;;;100.90;;
67728;SDS011;54526;30.574;103.916;2024-01-11T04:35:22;235.80;;;101.50;;
67728;SDS011;54526;30.574;103.916;2024-01-11T04:36:23;432.80;;;170.40;;
67728;SDS011;54526;30.574;103.916;2024-01-11T04:37:23;223.90;;;98.90;;
67728;SDS011;54526;30.574;103.916;2024-01-11T04:38:22;222.50;;;96.60;;
67728;SDS011;54526;30.574;103.916;2024-01-11T04:39:22;219.10;;;97.60;;
67728;SDS011;54526;30.574;103.916;2024-01-11T04:40:22;202.40;;;93.60;;
67728;SDS011;54526;30.574;103.916;2024-01-11T04:41:23;209.00;;;94.40;;
67728;SDS011;54526;30.574;103.916;2024-01-11T04:42:23;219.20;;;97.40;;
67728;SDS011;54526;30.574;103.916;2024-01-11T04:43:22;220.50;;;95.30;;
67728;SDS011;54526;30.574;103.916;2024-01-11T04:44:22;211.10;;;95.00;;
67728;SDS011;54526;30.574;103.916;2024-01-11T04:45:25;222.10;;;97.50;;
67728;SDS011;54526;30.574;103.916;2024-01-11T04:46:22;241.40;;;102.90;;
67728;SDS011;54526;30.574;103.916;2024-01-11T04:47:22;226.00;;;97.60;;
67728;SDS011;54526;30.574;103.916;2024-01-11T04:48:22;241.80;;;101.30;;
67728;SDS011;54526;30.574;103.916;2024-01-11T04:49:22;249.60;;;105.10;;
67728;SDS011;54526;30.574;103.916;2024-01-11T04:50:22;236.00;;;102.10;;
67728;SDS011;54526;30.574;103.916;2024-01-11T04:51:23;217.10;;;94.40;;
67728;SDS011;54526;30.574;103.916;2024-01-11T04:52:22;234.40;;;99.40;;
67728;SDS011;54526;30.574;103.916;2024-01-11T04:53:22;222.90;;;94.40;;
67728;SDS011;54526;30.574;103.916;2024-01-11T04:54:22;229.50;;;98.50;;
67728;SDS011;54526;30.574;103.916;2024-01-11T04:55:22;217.40;;;98.60;;
67728;SDS011;54526;30.574;103.916;2024-01-11T04:56:22;224.20;;;97.90;;
67728;SDS011;54526;30.574;103.916;2024-01-11T04:57:22;223.80;;;99.40;;
67728;SDS011;54526;30.574;103.916;2024-01-11T04:58:22;203.60;;;89.20;;
67728;SDS011;54526;30.574;103.916;2024-01-11T04:59:22;196.90;;;86.10;;
67728;SDS011;54526;30.574;103.916;2024-01-11T05:00:22;187.20;;;82.60;;
67728;SDS011;54526;30.574;103.916;2024-01-11T05:01:22;192.40;;;82.60;;
67728;SDS011;54526;30.574;103.916;2024-01-11T05:02:22;180.10;;;80.80;;
67728;SDS011;54526;30.574;103.916;2024-01-11T05:03:22;180.00;;;79.70;;
67728;SDS011;54526;30.574;103.916;2024-01-11T05:04:22;177.00;;;78.60;;
67728;SDS011;54526;30.574;103.916;2024-01-11T05:05:21;163.10;;;73.30;;
67728;SDS011;54526;30.574;103.916;2024-01-11T05:06:21;161.70;;;69.40;;
67728;SDS011;54526;30.574;103.916;2024-01-11T05:07:21;168.70;;;70.20;;
67728;SDS011;54526;30.574;103.916;2024-01-11T05:08:23;158.00;;;66.80;;
67728;SDS011;54526;30.574;103.916;2024-01-11T05:09:21;165.20;;;65.50;;
67728;SDS011;54526;30.574;103.916;2024-01-11T05:10:21;147.00;;;63.80;;
67728;SDS011;54526;30.574;103.916;2024-01-11T05:11:22;151.30;;;63.10;;
67728;SDS011;54526;30.574;103.916;2024-01-11T05:12:21;144.80;;;61.00;;
67728;SDS011;54526;30.574;103.916;2024-01-11T05:13:21;144.70;;;60.40;;
67728;SDS011;54526;30.574;103.916;2024-01-11T05:14:21;133.60;;;56.50;;
67728;SDS011;54526;30.574;103.916;2024-01-11T05:15:22;120.60;;;53.60;;
67728;SDS011;54526;30.574;103.916;2024-01-11T05:16:25;133.40;;;56.30;;
67728;SDS011;54526;30.574;103.916;2024-01-11T05:17:22;128.70;;;53.90;;
67728;SDS011;54526;30.574;103.916;2024-01-11T05:18:21;134.60;;;54.70;;
67728;SDS011;54526;30.574;103.916;2024-01-11T05:19:21;128.20;;;53.60;;
67728;SDS011;54526;30.574;103.916;2024-01-11T05:20:21;137.60;;;55.10;;
67728;SDS011;54526;30.574;103.916;2024-01-11T05:21:21;144.80;;;62.60;;
67728;SDS011;54526;30.574;103.916;2024-01-11T05:22:21;194.60;;;87.60;;
67728;SDS011;54526;30.574;103.916;2024-01-11T05:23:22;198.90;;;89.10;;
67728;SDS011;54526;30.574;103.916;2024-01-11T05:24:22;191.40;;;84.80;;
67728;SDS011;54526;30.574;103.916;2024-01-11T05:25:21;179.00;;;78.30;;
67728;SDS011;54526;30.574;103.916;2024-01-11T05:26:22;187.40;;;77.40;;
67728;SDS011;54526;30.574;103.916;2024-01-11T05:27:21;172.20;;;76.10;;
67728;SDS011;54526;30.574;103.916;2024-01-11T05:28:21;162.80;;;66.70;;
67728;SDS011;54526;30.574;103.916;2024-01-11T05:29:21;166.20;;;72.70;;
67728;SDS011;54526;30.574;103.916;2024-01-11T05:30:21;151.20;;;66.20;;
67728;SDS011;54526;30.574;103.916;2024-01-11T05:31:21;147.00;;;64.20;;
67728;SDS011;54526;30.574;103.916;2024-01-11T05:32:21;151.80;;;65.20;;
67728;SDS011;54526;30.574;103.916;2024-01-11T05:33:21;138.90;;;60.60;;
67728;SDS011;54526;30.574;103.916;2024-01-11T05:34:21;148.40;;;65.40;;
67728;SDS011;54526;30.574;103.916;2024-01-11T05:35:21;175.80;;;75.30;;
67728;SDS011;54526;30.574;103.916;2024-01-11T05:36:21;201.60;;;83.20;;
67728;SDS011;54526;30.574;103.916;2024-01-11T05:37:21;194.70;;;79.40;;